Meteo Giornale » Osservazioni meteo Stati Uniti (USA) » Burbank-Glendale-Pasadena

ore: 11:53 - Osservazioni Meteo Burbank-Glendale-Pasadena
Lat. 34° 11' N Lon. 118° 21' W Alt. 236 metri s.l.m.

sereno

26 °C

Sereno

Temp. 24 Ore

17 °C

29 °C

Sud/Sud-Est

16.7 Km/h

Dew point 14 °C

Umidità 47 %

Visibilità  10 Km

Il sole sorge alle ore 06:27

Il sole tramonta alle ore 19:19

Data e Ora Cielo e Fenomeni T °C DP °C Um. % Pres. hPa Vis. km Vento km/h
Oggi h: 11:53 sereno Sereno 26 14 47 1015 10 S/SE 16.7
Oggi h: 10:53 sereno Sereno 24 15 57 1016 10 E/SE 9.3
Oggi h: 09:53 sereno Sereno 22 16 68 1016 10 S/SE 9.3
Oggi h: 08:53 poco_nuvoloso Poco Nuvoloso 20 16 77 1016 10 N 5.5
Oggi h: 07:53 poco_nuvoloso Poco Nuvoloso 18 15 82 1015 10 N 0
Oggi h: 06:53 sereno Sereno 17 12 72 1015 10 N 0
Oggi h: 05:53 sereno Sereno 17 12 72 1014 10 N 5.5
Oggi h: 04:53 sereno Sereno 17 13 77 1014 10 N 0
Oggi h: 03:53 sereno Sereno 18 13 72 1014 10 N 0
Oggi h: 02:53 sereno Sereno 18 16 88 1015 10 S/SO 7.4
Oggi h: 01:53 sereno Sereno 18 16 88 1015 10 N 0
Oggi h: 00:53 sereno Sereno 18 16 88 1015 10 S/SO 7.4
Ieri h: 23:53 sereno Sereno 19 16 82 1014 10 SE 13
Ieri h: 22:53 sereno Sereno 20 16 77 1014 10 SE 11.1
Ieri h: 21:53 sereno Sereno 22 15 64 1014 10 SE 11.1
Ieri h: 20:53 sereno Sereno 22 13 56 1013 10 N 5.5
Ieri h: 18:53 sereno Sereno 24 11 43 1012 10 S 16.7
Ieri h: 17:53 sereno Sereno 27 8 30 1012 10 S 14.8
Ieri h: 16:53 sereno Sereno 28 10 32 1012 10 S 16.7
Ieri h: 15:53 sereno Sereno 29 14 39 1012 10 S 16.7
Ieri h: 13:53 sereno Sereno 29 15 42 1013 10 S 18.5
Ieri h: 12:53 sereno Sereno 28 17 51 1014 10 S 14.8